Time;durP1;ratioP1;P1;durP2;ratioP2;P2;SDS_P1;SDS_P2;PMS_P1;PMS_P2;Temp;Humidity;BMP_temperature;BMP_pressure;BME280_temperature;BME280_humidity;BME280_pressure;Samples;Min_cycle;Max_cycle;Signal;HPM_P1;HPM_P2
2022/03/15 00:01:33;;;;;;;;;;;;;;;;;;;;;
2022/03/15 00:05:01;;;;;;;7.55;5.60;;;;;;;4.59;75.41;94183.66;5053190;28;20037;-89
2022/03/15 00:08:07;;;;;;;7.35;5.82;;;;;;;4.28;76.24;94154.09;5046524;28;20484;-89
2022/03/15 00:11:04;;;;;;;;;;;;;;;;;;;;;
2022/03/15 00:14:02;;;;;;;7.93;5.70;;;;;;;4.46;76.25;94187.13;5079038;28;20035;-90
2022/03/15 00:17:01;;;;;;;;;;;;;;;;;;;;;
2022/03/15 00:19:51;;;;;;;8.27;5.05;;;;;;;4.50;75.98;94182.31;5068082;28;20434;-90
2022/03/15 00:23:18;;;;;;;;;;;;;;;;;;;;;
2022/03/15 00:26:08;;;;;;;8.23;5.88;;;;;;;4.41;75.64;94171.38;5055863;28;20041;-89
2022/03/15 00:28:57;;;;;;;9.32;6.15;;;;;;;4.49;77.33;94186.72;5039780;28;20041;-91
2022/03/15 00:31:41;;;;;;;;;;;;;;;;;;;;;
2022/03/15 00:34:57;;;;;;;;;;;;;;;;;;;;;
2022/03/15 00:37:54;;;;;;;;;;;;;;;;;;;;;
2022/03/15 00:40:40;;;;;;;8.40;5.47;;;;;;;4.03;79.72;94129.88;5023260;28;20050;-90
2022/03/15 00:43:40;;;;;;;7.88;5.90;;;;;;;4.40;80.12;94192.34;5022165;28;20045;-90
2022/03/15 00:47:10;;;;;;;;;;;;;;;;;;;;;
2022/03/15 00:53:24;;;;;;;7.63;5.50;;;;;;;4.28;80.91;94194.78;5026465;28;20163;-90
2022/03/15 00:59:12;;;;;;;8.70;5.85;;;;;;;4.14;80.55;94175.88;5035886;28;20041;-91
2022/03/15 01:02:01;;;;;;;8.38;5.90;;;;;;;4.13;80.66;94176.88;5056034;28;20029;-90
2022/03/15 01:05:19;;;;;;;;;;;;;;;;;;;;;
2022/03/15 01:08:03;;;;;;;8.07;5.65;;;;;;;3.77;81.63;94126.38;5023889;28;20037;-89
2022/03/15 01:11:31;;;;;;;;;;;;;;;;;;;;;
2022/03/15 01:14:27;;;;;;;8.93;6.22;;;;;;;3.77;82.66;94125.59;5055734;28;20033;-89
2022/03/15 01:17:18;;;;;;;;;;;;;;;;;;;;;
2022/03/15 01:20:16;;;;;;;7.60;5.55;;;;;;;4.14;83.07;94176.69;5055905;28;20073;-90
2022/03/15 01:23:04;;;;;;;7.60;5.63;;;;;;;3.72;83.84;94108.06;5036450;28;20037;-90
2022/03/15 01:26:04;;;;;;;;;;;;;;;;;;;;;
2022/03/15 01:29:11;;;;;;;8.63;5.78;;;;;;;4.09;84.42;94163.53;5031921;28;20067;-90
2022/03/15 01:32:07;;;;;;;7.95;5.75;;;;;;;4.04;85.25;94157.38;5037851;28;20053;-90
2022/03/15 01:34:54;;;;;;;8.48;5.78;;;;;;;3.71;85.48;94104.66;5050395;28;20048;-90
2022/03/15 01:37:36;;;;;;;;;;;;;;;;;;;;;
2022/03/15 01:40:49;;;;;;;8.90;5.95;;;;;;;3.71;85.27;94096.09;5025341;28;20490;-92
2022/03/15 01:44:06;;;;;;;;;;;;;;;;;;;;;
2022/03/15 01:47:00;;;;;;;8.85;5.82;;;;;;;3.67;85.84;94100.09;5032066;28;20046;-89
2022/03/15 01:50:15;;;;;;;11.07;6.00;;;;;;;3.86;85.70;94135.50;5036393;28;20041;-89
2022/03/15 01:56:17;;;;;;;10.02;6.57;;;;;;;3.76;86.80;94114.44;5028288;28;20045;-89
2022/03/15 01:58:55;;;;;;;9.20;6.05;;;;;;;3.81;86.39;94119.78;5023223;28;20044;-90
2022/03/15 02:01:52;;;;;;;9.45;6.32;;;;;;;3.51;85.60;94078.84;5038791;28;20436;-89
2022/03/15 02:04:45;;;;;;;8.95;6.30;;;;;;;3.59;85.80;94082.19;5056998;28;20028;-89
2022/03/15 02:07:31;;;;;;;8.73;6.07;;;;;;;3.78;85.87;94117.59;5072868;28;20170;-90
2022/03/15 02:10:10;;;;;;;8.90;5.65;;;;;;;3.44;86.73;94070.25;5013301;28;20078;-90
2022/03/15 02:13:33;;;;;;;;;;;;;;;;;;;;;
2022/03/15 02:16:09;;;;;;;8.35;5.68;;;;;;;3.42;86.29;94064.50;5052886;28;20045;-90
2022/03/15 02:19:18;;;;;;;9.02;6.68;;;;;;;3.51;85.75;94080.59;5035941;28;20494;-90
2022/03/15 02:22:26;;;;;;;;;;;;;;;;;;;;;
2022/03/15 02:25:21;;;;;;;8.60;6.07;;;;;;;3.59;87.04;94102.91;5034089;28;20029;-89
2022/03/15 02:28:17;;;;;;;9.02;6.15;;;;;;;3.61;86.24;94109.47;5001023;28;20045;-90
2022/03/15 02:31:24;;;;;;;;;;;;;;;;;;;;;
2022/03/15 02:34:16;;;;;;;8.45;6.32;;;;;;;3.41;86.67;94062.13;5041314;28;20040;-90
2022/03/15 02:37:15;;;;;;;;;;;;;;;;;;;;;
2022/03/15 02:40:24;;;;;;;8.75;6.43;;;;;;;3.84;87.27;94129.72;5041138;28;20486;-90
2022/03/15 02:43:30;;;;;;;9.27;6.78;;;;;;;3.59;86.85;94085.56;5055971;28;20478;-91
2022/03/15 02:46:06;;;;;;;8.68;6.22;;;;;;;3.83;87.24;94119.56;5058224;28;20764;-90
2022/03/15 02:48:39;;;;;;;8.73;5.97;;;;;;;3.88;87.05;94122.34;5022602;28;20086;-89
2022/03/15 02:51:25;;;;;;;8.40;5.80;;;;;;;3.48;87.16;94055.91;5006058;28;20151;-91
2022/03/15 02:54:29;;;;;;;8.38;5.95;;;;;;;3.50;87.64;94059.09;5037866;28;20059;-90
2022/03/15 02:57:06;;;;;;;9.25;5.72;;;;;;;3.78;88.52;94096.06;5004144;28;20048;-91
2022/03/15 03:03:09;;;;;;;8.80;6.13;;;;;;;3.43;89.37;94053.16;5044967;28;20036;-90
2022/03/15 03:06:16;;;;;;;;;;;;;;;;;;;;;
2022/03/15 03:09:11;;;;;;;8.93;5.70;;;;;;;3.68;89.86;94099.09;5052987;28;20706;-89
2022/03/15 03:12:09;;;;;;;9.90;6.38;;;;;;;3.78;89.78;94112.41;5059078;28;20107;-90
2022/03/15 03:17:29;;;;;;;9.02;6.05;;;;;;;3.72;88.49;94102.88;5045409;28;20544;-90
2022/03/15 03:20:35;;;;;;;7.78;5.60;;;;;;;3.58;88.13;94081.41;5065900;28;20048;-90
2022/03/15 03:23:13;;;;;;;;;;;;;;;;;;;;;
2022/03/15 03:26:19;;;;;;;;;;;;;;;;;;;;;
2022/03/15 03:29:15;;;;;;;8.32;6.40;;;;;;;3.82;88.75;94110.22;5075618;28;20410;-89
2022/03/15 03:32:32;;;;;;;7.88;5.93;;;;;;;3.41;89.39;94044.78;5058753;28;20509;-90
2022/03/15 03:35:40;;;;;;;8.18;5.80;;;;;;;3.48;90.46;94055.91;5036637;28;20172;-89
2022/03/15 03:38:30;;;;;;;8.02;5.90;;;;;;;3.83;90.59;94110.03;5036192;28;20041;-90
2022/03/15 03:45:04;;;;;;;;;;;;;;;;;;;;;
2022/03/15 03:47:52;;;;;;;8.00;6.05;;;;;;;3.33;90.93;94039.81;5036381;28;20049;-90
2022/03/15 03:53:42;;;;;;;10.23;6.43;;;;;;;3.34;90.91;94036.25;5036275;28;20465;-90
2022/03/15 03:56:59;;;;;;;10.40;6.00;;;;;;;3.37;90.71;94037.63;5037575;28;20038;-90
2022/03/15 03:59:39;;;;;;;9.82;6.05;;;;;;;3.52;90.58;94064.88;5035846;28;20033;-90
2022/03/15 04:02:45;;;;;;;8.93;6.20;;;;;;;3.60;90.62;94081.97;5006627;28;20037;-89
2022/03/15 04:05:41;;;;;;;10.38;6.60;;;;;;;3.53;90.70;94071.66;5035778;28;20045;-90
2022/03/15 04:08:22;;;;;;;;;;;;;;;;;;;;;
2022/03/15 04:11:18;;;;;;;8.27;6.25;;;;;;;3.59;91.57;94071.84;5040324;28;20116;-90
2022/03/15 04:14:08;;;;;;;8.73;6.20;;;;;;;3.34;91.31;94046.59;5040146;28;20116;-89
2022/03/15 04:16:52;;;;;;;9.40;6.38;;;;;;;3.27;91.37;94033.69;5038814;28;20123;-89
2022/03/15 04:19:54;;;;;;;;;;;;;;;;;;;;;
2022/03/15 04:23:08;;;;;;;9.02;6.40;;;;;;;3.37;91.95;94048.78;5057956;28;20116;-90
2022/03/15 04:25:59;;;;;;;8.38;5.95;;;;;;;3.26;91.31;94033.88;5054883;28;20043;-90
2022/03/15 04:28:39;;;;;;;9.13;6.15;;;;;;;3.34;91.85;94042.22;5055427;28;20047;-90
2022/03/15 04:31:34;;;;;;;8.93;6.10;;;;;;;3.74;91.41;94101.69;5039587;28;20045;-89
2022/03/15 04:34:15;;;;;;;8.45;6.07;;;;;;;3.48;91.89;94050.75;5055966;28;20474;-90
2022/03/15 04:37:31;;;;;;;8.63;6.32;;;;;;;3.54;91.88;94060.28;5036329;28;20056;-89
2022/03/15 04:40:28;;;;;;;7.90;6.07;;;;;;;3.37;92.07;94033.25;5017460;28;20056;-89
2022/03/15 04:43:10;;;;;;;8.13;5.82;;;;;;;3.36;92.63;94033.47;5060439;28;20039;-89
2022/03/15 04:45:50;;;;;;;8.20;6.00;;;;;;;3.57;93.14;94060.88;5058353;28;20489;-89
2022/03/15 04:48:42;;;;;;;;;;;;;;;;;;;;;
2022/03/15 04:51:38;;;;;;;;;;;;;;;;;;;;;
2022/03/15 04:54:56;;;;;;;8.10;5.85;;;;;;;3.61;93.32;94091.34;5034431;28;20488;-90
2022/03/15 04:57:29;;;;;;;8.25;6.28;;;;;;;3.25;92.87;94045.25;5018343;28;20049;-90
2022/03/15 05:00:27;;;;;;;;;;;;;;;;;;;;;
2022/03/15 05:03:19;;;;;;;9.52;6.25;;;;;;;3.22;92.64;94041.28;5051930;28;20032;-89
2022/03/15 05:06:03;;;;;;;8.35;5.93;;;;;;;3.34;92.61;94062.13;5061647;28;20047;-90
2022/03/15 05:08:55;;;;;;;;;;;;;;;;;;;;;
2022/03/15 05:11:37;;;;;;;7.60;5.10;;;;;;;3.48;92.02;94081.81;5021618;28;20056;-89
2022/03/15 05:14:12;;;;;;;8.63;5.72;;;;;;;3.67;92.67;94113.03;5034373;28;20124;-90
2022/03/15 05:16:50;;;;;;;8.65;5.93;;;;;;;3.16;93.14;94034.31;5007101;28;20048;-91
2022/03/15 05:19:22;;;;;;;8.70;5.75;;;;;;;3.26;93.23;94046.81;5035658;28;20048;-89
2022/03/15 05:22:14;;;;;;;8.82;5.45;;;;;;;3.22;93.11;94040.44;5002222;28;20044;-90
2022/03/15 05:24:51;;;;;;;6.57;5.22;;;;;;;3.34;92.60;94062.13;5002395;28;20051;-90
2022/03/15 05:27:46;;;;;;;7.53;5.25;;;;;;;3.23;92.02;94047.22;5025181;28;20124;-89
2022/03/15 05:30:25;;;;;;;8.02;5.47;;;;;;;3.44;92.29;94093.56;5043866;28;20518;-90
2022/03/15 05:33:11;;;;;;;7.07;5.07;;;;;;;3.18;92.57;94053.00;5071353;28;20041;-89
2022/03/15 05:35:53;;;;;;;7.32;5.15;;;;;;;3.47;92.15;94090.59;5010038;28;20038;-89
2022/03/15 05:45:30;;;;;;;;;;;;;;;;;;;;;
2022/03/15 05:48:44;;;;;;;6.97;4.88;;;;;;;3.18;92.96;94065.94;5022588;28;20067;-89
2022/03/15 05:51:23;;;;;;;6.88;4.78;;;;;;;3.30;92.85;94086.84;5039665;28;20514;-87
2022/03/15 05:53:52;;;;;;;6.35;4.60;;;;;;;3.19;92.86;94066.75;5053077;28;20037;-87
2022/03/15 05:56:25;;;;;;;7.25;4.80;;;;;;;3.22;93.12;94076.69;5050335;28;20359;-87
2022/03/15 05:58:51;;;;;;;7.43;5.45;;;;;;;3.45;92.85;94102.94;5029983;28;20151;-87
2022/03/15 06:01:44;;;;;;;9.75;6.35;;;;;;;3.46;91.09;94088.97;5050736;28;20035;-89
2022/03/15 06:04:33;;;;;;;9.68;6.53;;;;;;;3.26;92.22;94080.47;5054423;28;20098;-89
2022/03/15 06:07:01;;;;;;;8.60;6.22;;;;;;;3.23;93.66;94084.25;5053027;28;20033;-85
2022/03/15 06:09:27;;;;;;;8.32;5.82;;;;;;;3.11;94.49;94081.50;5044566;28;20393;-85
2022/03/15 06:11:54;;;;;;;7.88;5.82;;;;;;;3.29;94.72;94103.38;5053448;28;20028;-86
2022/03/15 06:14:20;;;;;;;8.70;6.43;;;;;;;3.41;94.42;94138.00;5050885;28;20098;-87
2022/03/15 06:16:46;;;;;;;8.15;6.72;;;;;;;3.42;94.93;94142.16;5067652;28;20112;-87
2022/03/15 06:19:12;;;;;;;9.05;6.35;;;;;;;3.40;95.12;94151.13;5051998;28;20078;-87
2022/03/15 06:21:39;;;;;;;9.35;6.45;;;;;;;3.31;95.47;94147.94;5042047;28;20188;-87
2022/03/15 06:24:06;;;;;;;7.57;6.10;;;;;;;3.31;95.50;94148.75;5034301;28;20040;-86
2022/03/15 06:26:32;;;;;;;9.05;6.50;;;;;;;3.10;96.00;94146.38;5063442;28;20051;-86
2022/03/15 06:28:59;;;;;;;9.55;6.93;;;;;;;3.16;96.33;94161.09;5034515;28;20097;-84
2022/03/15 06:31:27;;;;;;;12.05;7.22;;;;;;;2.97;96.72;94143.78;5048144;28;20037;-86
2022/03/15 06:33:52;;;;;;;10.85;7.50;;;;;;;3.03;97.00;94156.72;5049420;28;20072;-87
2022/03/15 06:36:18;;;;;;;10.25;7.50;;;;;;;2.91;97.63;94137.63;5053510;28;20047;-85
2022/03/15 06:38:44;;;;;;;13.80;8.07;;;;;;;3.08;97.32;94162.09;5054052;28;20041;-85
2022/03/15 06:41:12;;;;;;;9.82;7.18;;;;;;;3.13;97.24;94164.09;5055536;28;20033;-89
2022/03/15 06:43:39;;;;;;;10.35;6.72;;;;;;;3.07;96.58;94152.75;5039290;28;20030;-87
2022/03/15 06:46:06;;;;;;;8.65;6.53;;;;;;;3.18;96.57;94153.16;5038615;28;20044;-84
2022/03/15 06:48:31;;;;;;;8.65;5.95;;;;;;;3.32;96.30;94167.69;5038480;28;20127;-85
2022/03/15 06:50:57;;;;;;;8.30;6.18;;;;;;;3.32;96.97;94159.91;5051565;28;20870;-84
2022/03/15 06:53:23;;;;;;;13.75;6.85;;;;;;;3.50;97.43;94167.84;5022419;28;20036;-85
2022/03/15 06:55:49;;;;;;;8.63;6.18;;;;;;;3.54;97.51;94174.22;5052932;28;20033;-85
2022/03/15 06:58:14;;;;;;;10.18;6.30;;;;;;;3.68;97.88;94174.22;5017912;28;20124;-85
2022/03/15 07:00:40;;;;;;;8.40;6.10;;;;;;;3.69;97.14;94163.66;5069655;28;20036;-86
2022/03/15 07:03:06;;;;;;;7.70;5.90;;;;;;;3.75;96.98;94167.22;5037049;28;20199;-85
2022/03/15 07:05:32;;;;;;;7.72;5.85;;;;;;;3.68;96.60;94154.28;5072628;28;20032;-85
2022/03/15 07:07:59;;;;;;;7.85;5.80;;;;;;;3.82;95.72;94165.41;5055558;28;20048;-85
2022/03/15 07:10:24;;;;;;;8.38;5.55;;;;;;;3.95;96.07;94167.97;5038383;28;20045;-85
2022/03/15 07:12:50;;;;;;;9.65;6.70;;;;;;;3.95;95.99;94167.19;5038047;28;20040;-86
2022/03/15 07:15:17;;;;;;;8.75;5.75;;;;;;;4.03;96.24;94171.31;5021302;28;20428;-87
2022/03/15 07:17:57;;;;;;;7.82;5.63;;;;;;;4.07;95.81;94173.31;5038281;28;20486;-88
2022/03/15 07:20:23;;;;;;;8.52;5.95;;;;;;;4.11;95.89;94178.88;5054977;28;20044;-86
2022/03/15 07:22:50;;;;;;;8.30;5.82;;;;;;;4.12;95.94;94177.88;5038105;28;20048;-85
2022/03/15 07:25:16;;;;;;;8.32;5.90;;;;;;;4.09;95.83;94163.53;5051242;28;20036;-87
2022/03/15 07:27:43;;;;;;;8.05;5.90;;;;;;;4.20;96.23;94174.28;5051013;28;20045;-86
2022/03/15 07:30:09;;;;;;;8.15;5.85;;;;;;;4.29;95.46;94165.25;5054315;28;20032;-85
2022/03/15 07:32:35;;;;;;;10.60;6.90;;;;;;;4.33;94.13;94159.47;5054005;28;20056;-85
2022/03/15 07:35:01;;;;;;;10.13;6.45;;;;;;;4.20;94.96;94171.69;5050466;28;20037;-85
2022/03/15 07:37:27;;;;;;;30.33;7.15;;;;;;;3.90;98.48;94177.38;5067764;28;20052;-85
2022/03/15 07:39:52;;;;;;;85.80;8.80;;;;;;;3.90;98.29;94175.56;5032413;28;20490;-85
2022/03/15 07:42:19;;;;;;;11.82;7.28;;;;;;;4.02;98.40;94180.91;5034447;28;20045;-85
2022/03/15 07:44:46;;;;;;;8.98;6.93;;;;;;;4.10;97.73;94177.31;5036321;28;20123;-84
2022/03/15 07:47:15;;;;;;;11.35;7.55;;;;;;;3.93;96.99;94135.50;5071762;28;20135;-84
2022/03/15 07:49:42;;;;;;;10.85;7.38;;;;;;;4.09;97.33;94160.16;5054979;28;20059;-84
2022/03/15 07:52:09;;;;;;;9.27;7.47;;;;;;;4.14;96.50;94168.91;5055183;28;20115;-84
2022/03/15 07:54:34;;;;;;;11.50;6.75;;;;;;;4.28;95.40;94180.03;5054040;28;20043;-84
2022/03/15 07:57:01;;;;;;;11.55;7.68;;;;;;;4.18;96.01;94180.44;5072440;28;20044;-86
2022/03/15 07:59:27;;;;;;;10.52;7.70;;;;;;;4.11;95.61;94173.72;5072825;28;20555;-84
2022/03/15 08:01:53;;;;;;;10.43;7.18;;;;;;;4.00;96.36;94174.34;5054906;28;20056;-84
2022/03/15 08:04:19;;;;;;;10.35;7.40;;;;;;;4.14;95.65;94176.69;5054554;28;20072;-85
2022/03/15 08:06:44;;;;;;;12.50;8.20;;;;;;;4.02;96.53;94161.97;5072010;28;20051;-87
2022/03/15 08:09:11;;;;;;;12.13;8.70;;;;;;;4.17;96.45;94184.06;5037780;28;20367;-85
2022/03/15 08:11:36;;;;;;;11.98;8.23;;;;;;;4.26;96.54;94171.66;5072164;28;20093;-84
2022/03/15 08:14:02;;;;;;;11.80;8.77;;;;;;;4.29;95.64;94163.47;5053905;28;20115;-84
2022/03/15 08:16:28;;;;;;;10.73;8.38;;;;;;;4.46;95.16;94183.72;5058955;28;20029;-84
2022/03/15 08:18:54;;;;;;;13.52;9.60;;;;;;;4.52;94.73;94178.50;5017648;28;20041;-84
2022/03/15 08:21:22;;;;;;;13.70;9.00;;;;;;;4.53;94.19;94163.78;5051992;28;20041;-85
2022/03/15 08:23:48;;;;;;;13.05;8.80;;;;;;;4.68;93.47;94169.44;5034458;28;20079;-84
2022/03/15 08:26:14;;;;;;;15.18;9.48;;;;;;;4.76;92.04;94169.22;5035068;28;20057;-85
2022/03/15 08:28:41;;;;;;;13.07;8.65;;;;;;;4.79;92.06;94160.22;5038481;28;20033;-85
2022/03/15 08:31:07;;;;;;;46.83;8.32;;;;;;;4.44;96.21;94178.75;5037899;28;20047;-85
2022/03/15 08:33:32;;;;;;;73.43;11.38;;;;;;;4.43;97.76;94182.34;5037757;28;20053;-85
2022/03/15 08:35:58;;;;;;;25.20;9.15;;;;;;;4.45;96.76;94164.00;5055516;28;20075;-85
2022/03/15 08:38:29;;;;;;;27.73;9.75;;;;;;;4.53;96.36;94179.34;5038194;28;20045;-84
2022/03/15 08:40:55;;;;;;;16.63;10.82;;;;;;;4.56;95.03;94166.72;5037655;28;20456;-84
2022/03/15 08:43:22;;;;;;;111.25;11.73;;;;;;;4.50;95.67;94179.72;5038239;28;20111;-84
2022/03/15 08:45:48;;;;;;;55.75;11.35;;;;;;;4.28;98.00;94190.41;5037553;28;20136;-85
2022/03/15 08:48:13;;;;;;;30.80;12.38;;;;;;;4.09;98.11;94127.25;5036961;28;20116;-85
2022/03/15 08:50:39;;;;;;;19.33;13.05;;;;;;;4.40;97.36;94166.41;5024858;28;20033;-84
2022/03/15 08:53:05;;;;;;;15.77;10.77;;;;;;;4.69;94.97;94181.44;5057315;28;20130;-84
2022/03/15 08:55:31;;;;;;;19.55;12.23;;;;;;;4.70;95.20;94177.03;5040535;28;20608;-84
2022/03/15 08:57:57;;;;;;;18.02;12.35;;;;;;;4.86;94.80;94186.91;5057283;28;20017;-83
2022/03/15 09:00:23;;;;;;;16.38;11.38;;;;;;;4.93;94.16;94181.69;5075117;28;20043;-84
2022/03/15 09:02:49;;;;;;;18.02;12.30;;;;;;;4.83;93.95;94166.59;5075488;28;20028;-85
2022/03/15 09:05:19;;;;;;;17.70;11.38;;;;;;;4.89;94.00;94175.34;5057931;28;20131;-85
2022/03/15 09:07:51;;;;;;;17.88;11.43;;;;;;;4.68;96.29;94187.59;5057323;28;20048;-86
2022/03/15 09:10:18;;;;;;;21.52;11.35;;;;;;;4.60;97.07;94177.50;5075028;28;20117;-84
2022/03/15 09:12:44;;;;;;;24.17;12.13;;;;;;;4.63;96.98;94186.66;5075263;28;20036;-84
2022/03/15 09:15:10;;;;;;;26.17;12.90;;;;;;;4.58;96.75;94182.88;5056888;28;20405;-86
2022/03/15 09:17:35;;;;;;;22.58;14.40;;;;;;;4.62;97.91;94188.47;5057112;28;20520;-84
2022/03/15 09:20:01;;;;;;;21.30;13.95;;;;;;;4.56;96.96;94181.50;5074126;28;20492;-86
2022/03/15 09:22:27;;;;;;;20.17;13.40;;;;;;;4.66;96.05;94192.25;5074825;28;20037;-85
2022/03/15 09:24:52;;;;;;;20.08;12.85;;;;;;;4.78;95.60;94193.16;5040344;28;20105;-85
2022/03/15 09:27:18;;;;;;;18.85;13.30;;;;;;;4.90;95.23;94197.69;5073646;28;20067;-84
2022/03/15 09:29:43;;;;;;;20.38;13.60;;;;;;;4.93;94.39;94187.69;5066678;28;20037;-84
2022/03/15 09:32:10;;;;;;;18.00;12.18;;;;;;;4.86;93.86;94180.94;5049315;28;20427;-83
2022/03/15 09:34:37;;;;;;;19.05;11.98;;;;;;;4.84;93.56;94177.75;5050030;28;20029;-83
2022/03/15 09:37:04;;;;;;;19.67;12.40;;;;;;;5.01;93.61;94190.00;5033421;28;20029;-84
2022/03/15 09:39:30;;;;;;;20.98;12.38;;;;;;;5.03;93.49;94181.25;5032483;28;20483;-84
2022/03/15 09:41:59;;;;;;;23.00;14.32;;;;;;;5.16;94.15;94194.13;5052696;28;20041;-83
2022/03/15 09:44:30;;;;;;;22.85;14.05;;;;;;;5.06;94.65;94175.63;5050422;28;20091;-84
2022/03/15 09:47:02;;;;;;;18.77;13.75;;;;;;;5.12;94.19;94165.19;5052996;28;20068;-84
2022/03/15 09:49:29;;;;;;;22.92;14.48;;;;;;;5.19;93.33;94168.53;5054430;28;20041;-84
2022/03/15 09:51:56;;;;;;;21.80;14.57;;;;;;;5.18;93.18;94164.34;5052379;28;20112;-84
2022/03/15 09:54:22;;;;;;;21.80;14.23;;;;;;;5.14;93.59;94173.56;5036606;28;20041;-84
2022/03/15 09:56:49;;;;;;;34.25;14.50;;;;;;;5.11;93.73;94188.75;5054524;28;20041;-85
2022/03/15 09:59:17;;;;;;;33.17;14.23;;;;;;;4.90;94.96;94187.31;5054320;28;20111;-83
2022/03/15 10:01:45;;;;;;;49.90;15.98;;;;;;;4.56;96.37;94181.50;5053919;28;20047;-83
2022/03/15 10:04:12;;;;;;;349.20;19.88;;;;;;;4.52;96.32;94186.28;5052676;28;20092;-84
2022/03/15 10:06:38;;;;;;;42.13;16.13;;;;;;;4.36;96.95;94164.22;5052951;28;20094;-83
2022/03/15 10:09:05;;;;;;;34.67;16.27;;;;;;;4.36;98.66;94181.59;5052866;28;20033;-83
2022/03/15 10:11:31;;;;;;;33.20;17.25;;;;;;;4.28;98.49;94189.59;5036204;28;20045;-83
2022/03/15 10:13:58;;;;;;;25.02;15.77;;;;;;;4.31;97.31;94184.78;5048046;28;20022;-84
2022/03/15 10:16:35;;;;;;;28.90;16.13;;;;;;;4.31;96.95;94179.59;5015825;28;20037;-83
2022/03/15 10:19:02;;;;;;;25.63;15.55;;;;;;;4.38;96.41;94185.56;5032447;28;20033;-83
2022/03/15 10:21:46;;;;;;;28.90;16.70;;;;;;;4.38;96.13;94175.19;5016604;28;20045;-83
2022/03/15 10:24:18;;;;;;;26.20;16.02;;;;;;;4.30;96.55;94167.66;5033491;28;20040;-84
2022/03/15 10:26:47;;;;;;;28.25;16.88;;;;;;;4.36;95.78;94181.59;5051874;28;20037;-85
2022/03/15 10:29:14;;;;;;;27.05;16.60;;;;;;;4.29;96.36;94175.63;5051719;28;20047;-85
2022/03/15 10:31:42;;;;;;;30.52;17.65;;;;;;;4.28;96.73;94167.06;5033675;28;20449;-84
2022/03/15 10:34:08;;;;;;;29.02;17.25;;;;;;;4.28;97.31;94158.47;5051502;28;20033;-85
2022/03/15 10:36:42;;;;;;;30.20;18.17;;;;;;;4.35;97.71;94180.78;5050083;28;20029;-85
2022/03/15 10:39:10;;;;;;;31.77;18.00;;;;;;;4.35;97.41;94173.00;5051543;28;20474;-84
2022/03/15 10:41:42;;;;;;;29.08;17.10;;;;;;;4.40;97.53;94172.41;5051192;28;20025;-84
2022/03/15 10:44:37;;;;;;;;;;;;;;;4.31;96.43;94169.25;5051899;28;20060;-84
2022/03/15 10:47:15;;;;;;;30.77;16.75;;;;;;;4.25;97.03;94159.69;5020008;28;19913;-84
2022/03/15 10:49:47;;;;;;;28.13;16.83;;;;;;;4.35;97.61;94169.63;5013098;28;20375;-84
2022/03/15 10:52:14;;;;;;;29.40;16.75;;;;;;;4.18;98.16;94143.38;5014290;28;20037;-85
2022/03/15 10:54:40;;;;;;;31.27;17.10;;;;;;;4.19;98.31;94155.34;5010648;28;20037;-85
2022/03/15 10:57:06;;;;;;;34.63;18.35;;;;;;;4.21;99.22;94158.53;5042644;28;20044;-84
2022/03/15 10:59:31;;;;;;;33.50;19.67;;;;;;;4.18;100.00;94164.09;5066850;28;20029;-84
2022/03/15 11:01:57;;;;;;;56.75;20.08;;;;;;;3.89;100.00;94135.09;5049939;28;20048;-86
2022/03/15 11:04:23;;;;;;;114.07;23.27;;;;;;;4.09;100.00;94158.34;5016977;28;20040;-84
2022/03/15 11:06:52;;;;;;;140.55;22.13;;;;;;;4.10;100.00;94146.22;5043439;28;20045;-85
2022/03/15 11:09:32;;;;;;;45.53;22.23;;;;;;;4.08;100.00;94143.03;5029932;28;20039;-85
2022/03/15 11:12:06;;;;;;;45.58;22.27;;;;;;;4.12;100.00;94139.81;5030511;28;20049;-91
2022/03/15 11:14:45;;;;;;;47.38;23.25;;;;;;;4.20;100.00;94148.34;5037467;28;20547;-84
2022/03/15 11:17:21;;;;;;;44.72;23.83;;;;;;;4.13;99.78;94130.22;5041204;28;20080;-84
2022/03/15 11:19:47;;;;;;;40.50;24.27;;;;;;;4.25;99.95;94143.34;5032658;28;20033;-84
2022/03/15 11:22:14;;;;;;;47.50;23.70;;;;;;;4.18;100.00;94128.59;5046402;28;20112;-86
2022/03/15 11:25:08;;;;;;;45.08;24.48;;;;;;;4.26;100.00;94130.19;5046764;28;20256;-86
2022/03/15 11:27:39;;;;;;;42.60;22.30;;;;;;;4.32;100.00;94120.78;5030605;28;20075;-85
2022/03/15 11:30:07;;;;;;;47.83;24.65;;;;;;;4.38;99.89;94115.53;5045555;28;20036;-85
2022/03/15 11:32:34;;;;;;;49.35;24.27;;;;;;;4.37;100.00;94108.00;5058621;28;20051;-86
2022/03/15 11:35:01;;;;;;;46.60;24.00;;;;;;;4.28;99.50;94094.47;5047830;28;20024;-87
2022/03/15 11:37:29;;;;;;;42.05;23.60;;;;;;;4.40;99.66;94106.78;5050003;28;20123;-86
2022/03/15 11:39:57;;;;;;;42.60;22.88;;;;;;;4.46;99.61;94098.16;5035799;28;20052;-86
2022/03/15 11:42:26;;;;;;;46.70;22.92;;;;;;;4.39;99.27;94082.66;5070574;28;20056;-85
2022/03/15 11:45:24;;;;;;;43.78;23.77;;;;;;;4.54;99.11;94095.31;5070790;28;20106;-85
2022/03/15 11:48:04;;;;;;;47.58;23.77;;;;;;;4.55;99.08;94100.31;5067741;28;20028;-85
2022/03/15 11:50:41;;;;;;;51.20;25.40;;;;;;;4.54;98.46;94095.31;5052302;28;20029;-84
2022/03/15 11:53:25;;;;;;;41.67;22.92;;;;;;;4.62;98.67;94092.50;5034641;28;20052;-84
2022/03/15 11:55:57;;;;;;;47.88;24.55;;;;;;;4.67;98.16;94103.03;5034473;28;20359;-84
2022/03/15 11:58:28;;;;;;;45.97;23.05;;;;;;;4.68;98.31;94091.63;5051453;28;20049;-85
2022/03/15 12:00:57;;;;;;;51.75;23.73;;;;;;;4.69;96.95;94088.03;5054432;28;20044;-84
2022/03/15 12:03:23;;;;;;;45.83;23.33;;;;;;;4.77;96.70;94081.78;5025451;28;20061;-85
2022/03/15 12:05:52;;;;;;;48.55;23.45;;;;;;;4.87;96.50;94084.72;5057964;28;20040;-85
2022/03/15 12:08:27;;;;;;;48.72;24.60;;;;;;;4.89;96.33;94077.53;5058200;28;20067;-84
2022/03/15 12:10:58;;;;;;;53.20;24.65;;;;;;;4.87;95.92;94074.34;5021948;28;20040;-84
2022/03/15 12:13:41;;;;;;;52.97;23.88;;;;;;;4.70;96.01;94068.88;5038035;28;20123;-84
2022/03/15 12:16:15;;;;;;;49.22;24.85;;;;;;;4.71;95.14;94060.09;5054984;28;20033;-84
2022/03/15 12:18:54;;;;;;;;;;;;;;;4.78;96.31;94070.41;5039669;28;20052;-85
2022/03/15 12:21:26;;;;;;;48.03;22.55;;;;;;;4.72;96.06;94060.88;5051529;28;19912;-84
2022/03/15 12:23:54;;;;;;;54.55;24.27;;;;;;;4.79;95.85;94054.63;5058351;28;20041;-85
2022/03/15 12:26:22;;;;;;;48.25;23.75;;;;;;;4.88;94.68;94056.97;5059466;28;20107;-86
2022/03/15 12:29:02;;;;;;;45.65;23.15;;;;;;;5.01;94.05;94069.84;5096935;28;20013;-89
2022/03/15 12:31:36;;;;;;;51.47;24.50;;;;;;;4.98;94.00;94047.69;5031828;28;20042;-84
2022/03/15 12:34:08;;;;;;;49.60;24.38;;;;;;;4.96;92.54;94033.34;5031236;28;20033;-84
2022/03/15 12:36:54;;;;;;;50.58;23.02;;;;;;;5.17;92.76;94048.50;5034586;28;20044;-85
2022/03/15 12:39:24;;;;;;;52.17;25.23;;;;;;;5.28;92.79;94046.22;5075120;28;20032;-85
2022/03/15 12:42:05;;;;;;;55.83;24.38;;;;;;;5.46;92.72;94035.06;5057346;28;20033;-84
2022/03/15 12:44:38;;;;;;;51.15;25.15;;;;;;;5.51;92.21;94027.41;5048160;28;20043;-85
2022/03/15 12:47:05;;;;;;;49.03;23.55;;;;;;;5.53;91.95;94015.78;5032956;28;20040;-85
2022/03/15 12:49:31;;;;;;;48.83;22.92;;;;;;;5.66;90.97;94024.47;5024460;28;20090;-85
2022/03/15 12:52:09;;;;;;;46.42;23.08;;;;;;;5.55;91.66;94016.38;5041576;28;20090;-85
2022/03/15 12:54:35;;;;;;;44.58;22.45;;;;;;;5.29;92.24;93986.31;5073007;28;20119;-84
2022/03/15 12:57:09;;;;;;;46.50;22.35;;;;;;;5.32;92.77;94018.84;5074081;28;20120;-84
2022/03/15 12:59:36;;;;;;;53.15;24.25;;;;;;;5.29;93.27;94012.28;5057385;28;20036;-85
2022/03/15 13:02:03;;;;;;;54.50;24.67;;;;;;;5.28;93.66;94013.25;5073777;28;20106;-85
2022/03/15 13:04:30;;;;;;;46.30;22.73;;;;;;;5.37;92.80;94011.19;5040661;28;20044;-84
2022/03/15 13:06:56;;;;;;;52.50;24.98;;;;;;;5.42;92.44;94008.72;5075119;28;20116;-84
2022/03/15 13:09:27;;;;;;;49.85;23.73;;;;;;;5.51;92.18;94015.22;5057221;28;20082;-85
2022/03/15 13:11:56;;;;;;;57.38;27.55;;;;;;;5.52;92.36;93998.63;5072851;28;20032;-84
2022/03/15 13:14:28;;;;;;;57.22;27.27;;;;;;;5.70;91.88;94004.84;5027329;28;20058;-85
2022/03/15 13:16:57;;;;;;;54.45;25.58;;;;;;;5.81;92.07;94002.28;5056844;28;20482;-84
2022/03/15 13:19:31;;;;;;;49.25;24.88;;;;;;;5.89;91.51;93992.59;5056805;28;20035;-85
2022/03/15 13:21:58;;;;;;;55.05;27.08;;;;;;;5.84;90.01;93986.25;5056833;28;20482;-85
2022/03/15 13:24:36;;;;;;;53.47;25.80;;;;;;;5.98;90.31;93984.28;5074114;28;20048;-85
2022/03/15 13:27:04;;;;;;;54.50;23.90;;;;;;;5.99;90.20;93995.47;5071955;28;20067;-85
2022/03/15 13:29:32;;;;;;;58.97;25.27;;;;;;;5.95;89.98;93992.53;5039978;28;20059;-85
2022/03/15 13:32:01;;;;;;;52.10;24.13;;;;;;;6.01;90.12;93975.25;5032641;28;20502;-85
2022/03/15 13:34:29;;;;;;;51.42;23.65;;;;;;;6.13;88.49;93973.50;5020262;28;20041;-86
2022/03/15 13:37:07;;;;;;;61.78;24.77;;;;;;;6.10;88.13;93988.72;5036721;28;20493;-84